Time;durP1;ratioP1;P1;durP2;ratioP2;P2;SDS_P1;SDS_P2;PMS_P1;PMS_P2;Temp;Humidity;BMP_temperature;BMP_pressure;BME280_temperature;BME280_humidity;BME280_pressure;Samples;Min_cycle;Max_cycle;Signal;HPM_P1;HPM_P2
2023/12/10 00:01:17;;;;;;;9.80;7.00;;;;;;;;;;5029914;28;20215;-83
2023/12/10 00:03:44;;;;;;;10.07;6.37;;;;;;;;;;5030076;28;20286;-83
2023/12/10 00:06:11;;;;;;;10.40;8.17;;;;;;;;;;5030357;28;20255;-83
2023/12/10 00:08:38;;;;;;;10.47;7.80;;;;;;;;;;5030058;28;20203;-84
2023/12/10 00:11:07;;;;;;;10.23;6.13;;;;;;;;;;5029943;28;20584;-84
2023/12/10 00:13:34;;;;;;;7.57;6.00;;;;;;;;;;5029751;28;20233;-84
2023/12/10 00:16:00;;;;;;;10.53;7.77;;;;;;;;;;5029589;28;20293;-84
2023/12/10 00:18:27;;;;;;;8.47;6.37;;;;;;;;;;5030231;28;20596;-84
2023/12/10 00:20:54;;;;;;;10.80;6.80;;;;;;;;;;5029855;28;20207;-84
2023/12/10 00:23:21;;;;;;;11.53;7.50;;;;;;;;;;5029996;28;20206;-84
2023/12/10 00:25:48;;;;;;;11.37;7.57;;;;;;;;;;5029550;28;20688;-84
2023/12/10 00:28:16;;;;;;;11.20;8.23;;;;;;;;;;5029393;28;20685;-84
2023/12/10 00:30:45;;;;;;;11.33;8.10;;;;;;;;;;5029547;28;20224;-84
2023/12/10 00:33:15;;;;;;;10.90;7.70;;;;;;;;;;5029613;28;20664;-83
2023/12/10 00:35:42;;;;;;;11.43;7.90;;;;;;;;;;5028817;28;20295;-84
2023/12/10 00:38:09;;;;;;;11.73;7.97;;;;;;;;;;5029551;28;20210;-84
2023/12/10 00:40:36;;;;;;;17.27;10.57;;;;;;;;;;5029353;28;20213;-84
2023/12/10 00:43:06;;;;;;;11.73;7.33;;;;;;;;;;5029624;28;20212;-84
2023/12/10 00:45:34;;;;;;;14.83;8.73;;;;;;;;;;5029108;28;20301;-84
2023/12/10 00:48:01;;;;;;;9.50;7.70;;;;;;;;;;5029139;28;20212;-85
2023/12/10 00:50:28;;;;;;;10.07;7.33;;;;;;;;;;5029680;28;20229;-84
2023/12/10 00:52:55;;;;;;;9.17;6.23;;;;;;;;;;5028992;28;20237;-84
2023/12/10 00:55:21;;;;;;;8.00;5.93;;;;;;;;;;5028979;28;20212;-83
2023/12/10 00:57:48;;;;;;;10.73;6.80;;;;;;;;;;5029286;28;20592;-83
2023/12/10 01:00:19;;;;;;;15.90;11.23;;;;;;;;;;5028984;28;20693;-84
2023/12/10 01:02:47;;;;;;;13.33;9.60;;;;;;;;;;5028728;28;20210;-84
2023/12/10 01:05:17;;;;;;;15.07;9.40;;;;;;;;;;5028910;28;20211;-84
2023/12/10 01:07:44;;;;;;;11.17;8.00;;;;;;;;;;5029326;28;20681;-82
2023/12/10 01:10:11;;;;;;;11.03;7.63;;;;;;;;;;5029177;28;20206;-84
2023/12/10 01:12:39;;;;;;;10.10;7.60;;;;;;;;;;5029240;28;20249;-84
2023/12/10 01:15:08;;;;;;;10.70;7.97;;;;;;;;;;5029039;28;20259;-84
2023/12/10 01:17:35;;;;;;;12.90;8.33;;;;;;;;;;5028682;28;20210;-85
2023/12/10 01:20:04;;;;;;;13.90;8.00;;;;;;;;;;5028757;28;20748;-84
2023/12/10 01:22:31;;;;;;;10.60;7.27;;;;;;;;;;5028752;28;20215;-85
2023/12/10 01:24:58;;;;;;;10.03;7.57;;;;;;;;;;5028768;28;20213;-85
2023/12/10 01:27:25;;;;;;;10.43;7.93;;;;;;;;;;5029075;28;20615;-84
2023/12/10 01:29:52;;;;;;;11.87;7.90;;;;;;;;;;5029027;28;20209;-84
2023/12/10 01:32:20;;;;;;;12.13;8.10;;;;;;;;;;5029016;28;20227;-84
2023/12/10 01:34:47;;;;;;;11.90;8.13;;;;;;;;;;5028839;28;20750;-85
2023/12/10 01:37:17;;;;;;;14.63;8.57;;;;;;;;;;5028585;28;20213;-84
2023/12/10 01:39:44;;;;;;;14.43;8.87;;;;;;;;;;5028599;28;20210;-85
2023/12/10 01:42:11;;;;;;;30.93;17.63;;;;;;;;;;5028964;28;20222;-85
2023/12/10 01:44:39;;;;;;;27.70;17.63;;;;;;;;;;5029298;28;20209;-85
2023/12/10 01:47:07;;;;;;;30.30;17.70;;;;;;;;;;5028460;28;20214;-85
2023/12/10 01:49:34;;;;;;;21.10;13.60;;;;;;;;;;5029045;28;20209;-85
2023/12/10 01:52:01;;;;;;;14.47;8.67;;;;;;;;;;5028783;28;20226;-85
2023/12/10 01:54:30;;;;;;;12.77;9.67;;;;;;;;;;5028608;28;20207;-84
2023/12/10 01:56:57;;;;;;;13.40;9.27;;;;;;;;;;5028910;28;20230;-85
2023/12/10 01:59:24;;;;;;;14.40;8.20;;;;;;;;;;5028868;28;20260;-85
2023/12/10 02:01:51;;;;;;;12.13;8.73;;;;;;;;;;5028261;28;20212;-85
2023/12/10 02:04:19;;;;;;;11.40;7.80;;;;;;;;;;5028810;28;20215;-85
2023/12/10 02:06:47;;;;;;;16.93;8.63;;;;;;;;;;5028346;28;20687;-85
2023/12/10 02:09:18;;;;;;;13.67;8.53;;;;;;;;;;5028320;28;20199;-85
2023/12/10 02:11:46;;;;;;;10.77;8.40;;;;;;;;;;5028242;28;20784;-86
2023/12/10 02:14:13;;;;;;;14.77;9.93;;;;;;;;;;5028746;28;20303;-85
2023/12/10 02:16:40;;;;;;;16.40;10.73;;;;;;;;;;5030204;28;20236;-85
2023/12/10 02:19:07;;;;;;;22.50;14.93;;;;;;;;;;5032278;28;20655;-86
2023/12/10 02:21:35;;;;;;;21.13;14.97;;;;;;;;;;5032077;28;20625;-86
2023/12/10 02:24:07;;;;;;;17.13;11.20;;;;;;;;;;5032026;28;20213;-85
2023/12/10 02:26:35;;;;;;;15.00;9.50;;;;;;;;;;5031872;28;20213;-85
2023/12/10 02:29:07;;;;;;;11.73;9.00;;;;;;;;;;5032290;28;20217;-85
2023/12/10 02:31:34;;;;;;;16.53;9.60;;;;;;;;;;5032192;28;20234;-86
2023/12/10 02:34:01;;;;;;;13.40;9.40;;;;;;;;;;5032060;28;20222;-85
2023/12/10 02:36:28;;;;;;;11.23;9.00;;;;;;;;;;5031796;28;20194;-85
2023/12/10 02:38:55;;;;;;;11.50;8.50;;;;;;;;;;5031696;28;20291;-85
2023/12/10 02:41:22;;;;;;;10.53;7.37;;;;;;;;;;5032088;28;20206;-85
2023/12/10 02:43:50;;;;;;;9.00;6.50;;;;;;;;;;5031906;28;20203;-85
2023/12/10 02:46:17;;;;;;;11.43;8.90;;;;;;;;;;5031444;28;20214;-85
2023/12/10 02:48:44;;;;;;;16.23;9.97;;;;;;;;;;5031351;28;20209;-85
2023/12/10 02:51:11;;;;;;;16.90;10.67;;;;;;;;;;5031742;28;20221;-85
2023/12/10 02:53:37;;;;;;;10.87;8.93;;;;;;;;;;5030884;28;20229;-86
2023/12/10 02:56:05;;;;;;;14.53;10.37;;;;;;;;;;5031581;28;20220;-85
2023/12/10 02:58:32;;;;;;;14.13;9.40;;;;;;;;;;5031652;27;20203;-85
2023/12/10 03:01:00;;;;;;;12.67;8.97;;;;;;;;;;5031465;28;20203;-85
2023/12/10 03:03:27;;;;;;;29.10;16.97;;;;;;;;;;5031597;28;20209;-85
2023/12/10 03:05:54;;;;;;;19.63;12.03;;;;;;;;;;5031051;28;20215;-85
2023/12/10 03:08:21;;;;;;;11.13;8.80;;;;;;;;;;5031451;28;20297;-85
2023/12/10 03:10:48;;;;;;;15.37;10.60;;;;;;;;;;5030931;28;20229;-85
2023/12/10 03:13:15;;;;;;;12.60;10.87;;;;;;;;;;5030919;28;20237;-85
2023/12/10 03:15:42;;;;;;;15.63;11.50;;;;;;;;;;5030528;28;20199;-85
2023/12/10 03:18:10;;;;;;;14.77;10.33;;;;;;;;;;5031201;28;20230;-85
2023/12/10 03:20:37;;;;;;;15.70;11.57;;;;;;;;;;5030688;28;20697;-84
2023/12/10 03:23:04;;;;;;;13.37;9.67;;;;;;;;;;5030732;28;20606;-85
2023/12/10 03:25:31;;;;;;;12.70;9.63;;;;;;;;;;5031408;28;20224;-85
2023/12/10 03:27:58;;;;;;;12.73;8.37;;;;;;;;;;5029535;28;20206;-85
2023/12/10 03:30:25;;;;;;;11.40;8.57;;;;;;;;;;5031106;28;20199;-85
2023/12/10 03:32:52;;;;;;;13.33;8.37;;;;;;;;;;5030945;28;20231;-85
2023/12/10 03:35:20;;;;;;;11.90;9.47;;;;;;;;;;5030587;28;20210;-85
2023/12/10 03:37:47;;;;;;;18.20;11.23;;;;;;;;;;5030646;28;20294;-85
2023/12/10 03:40:14;;;;;;;21.30;13.73;;;;;;;;;;5030815;28;20210;-85
2023/12/10 03:42:41;;;;;;;15.17;11.60;;;;;;;;;;5030753;28;20700;-85
2023/12/10 03:45:08;;;;;;;13.00;9.70;;;;;;;;;;5030825;28;20199;-85
2023/12/10 03:47:35;;;;;;;13.67;9.67;;;;;;;;;;5030578;28;20587;-85
2023/12/10 03:50:03;;;;;;;13.90;9.37;;;;;;;;;;5030705;28;20206;-85
2023/12/10 03:52:31;;;;;;;16.77;11.60;;;;;;;;;;5030411;28;20198;-85
2023/12/10 03:54:58;;;;;;;12.10;9.27;;;;;;;;;;5030564;28;20205;-85
2023/12/10 03:57:25;;;;;;;9.87;7.60;;;;;;;;;;5030491;28;20210;-85
2023/12/10 03:59:52;;;;;;;7.60;6.07;;;;;;;;;;5030418;28;20213;-84
2023/12/10 04:02:19;;;;;;;7.07;5.63;;;;;;;;;;5030240;28;20236;-85
2023/12/10 04:04:46;;;;;;;8.27;6.10;;;;;;;;;;5030328;28;20214;-84
2023/12/10 04:07:13;;;;;;;15.07;9.90;;;;;;;;;;5030444;28;20207;-85
2023/12/10 04:09:41;;;;;;;12.63;7.90;;;;;;;;;;5030114;28;20209;-85
2023/12/10 04:12:08;;;;;;;14.97;9.07;;;;;;;;;;5030230;28;20233;-85
2023/12/10 04:14:35;;;;;;;12.90;9.63;;;;;;;;;;5030342;28;20228;-84
2023/12/10 04:17:04;;;;;;;12.97;9.10;;;;;;;;;;5029707;28;20733;-84
2023/12/10 04:19:31;;;;;;;12.83;9.40;;;;;;;;;;5030158;28;20210;-84
2023/12/10 04:21:58;;;;;;;12.77;9.07;;;;;;;;;;5029673;28;20203;-84
2023/12/10 04:24:25;;;;;;;10.20;9.00;;;;;;;;;;5029503;28;20695;-84
2023/12/10 04:26:53;;;;;;;14.20;10.37;;;;;;;;;;5030052;28;20601;-84
2023/12/10 04:29:20;;;;;;;14.70;11.30;;;;;;;;;;5030020;28;20228;-84
2023/12/10 04:31:47;;;;;;;14.07;10.47;;;;;;;;;;5029809;28;20213;-85
2023/12/10 04:34:14;;;;;;;14.83;9.67;;;;;;;;;;5029486;28;20241;-85
2023/12/10 04:36:41;;;;;;;17.97;9.27;;;;;;;;;;5029392;28;20674;-83
2023/12/10 04:39:08;;;;;;;13.70;10.67;;;;;;;;;;5028889;28;20205;-84
2023/12/10 04:41:35;;;;;;;14.83;11.20;;;;;;;;;;5029804;28;20717;-84
2023/12/10 04:44:06;;;;;;;13.13;10.17;;;;;;;;;;5029700;28;20230;-84
2023/12/10 04:46:33;;;;;;;14.57;11.17;;;;;;;;;;5029178;28;20206;-83
2023/12/10 04:49:00;;;;;;;16.13;11.10;;;;;;;;;;5029430;28;20198;-84
2023/12/10 04:51:27;;;;;;;47.47;28.03;;;;;;;;;;5029279;28;20203;-84
2023/12/10 04:53:54;;;;;;;24.97;16.97;;;;;;;;;;5029116;28;20467;-84
2023/12/10 04:56:20;;;;;;;13.40;9.80;;;;;;;;;;5028929;28;20677;-84
2023/12/10 04:58:47;;;;;;;12.23;8.83;;;;;;;;;;5029209;28;20311;-84
2023/12/10 05:01:17;;;;;;;10.73;7.63;;;;;;;;;;5029168;28;20217;-84
2023/12/10 05:03:44;;;;;;;18.07;10.63;;;;;;;;;;5029289;28;20206;-84
2023/12/10 05:06:11;;;;;;;14.80;10.43;;;;;;;;;;5029395;28;20211;-84
2023/12/10 05:08:37;;;;;;;13.20;11.60;;;;;;;;;;5029097;28;20206;-84
2023/12/10 05:11:05;;;;;;;22.03;16.67;;;;;;;;;;5029224;28;20695;-84
2023/12/10 05:13:32;;;;;;;17.93;12.00;;;;;;;;;;5029107;28;20229;-84
2023/12/10 05:15:59;;;;;;;20.50;16.17;;;;;;;;;;5029086;28;20285;-84
2023/12/10 05:18:27;;;;;;;26.07;18.60;;;;;;;;;;5028461;28;20214;-84
2023/12/10 05:20:54;;;;;;;21.57;15.43;;;;;;;;;;5028988;28;20203;-84
2023/12/10 05:23:21;;;;;;;16.40;10.93;;;;;;;;;;5028270;28;20198;-83
2023/12/10 05:25:48;;;;;;;24.53;16.43;;;;;;;;;;5028297;28;20221;-84
2023/12/10 05:28:15;;;;;;;27.33;17.93;;;;;;;;;;5028941;28;20294;-84
2023/12/10 05:30:42;;;;;;;24.63;18.33;;;;;;;;;;5028041;28;20256;-84
2023/12/10 05:33:09;;;;;;;20.87;14.80;;;;;;;;;;5028886;28;20209;-85
2023/12/10 05:35:37;;;;;;;20.27;13.33;;;;;;;;;;5027936;28;20208;-86
2023/12/10 05:38:07;;;;;;;16.77;11.93;;;;;;;;;;5036798;28;20216;-84
2023/12/10 05:40:34;;;;;;;15.67;11.77;;;;;;;;;;5044164;28;20213;-85
2023/12/10 05:43:01;;;;;;;16.67;11.87;;;;;;;;;;5049682;28;20251;-81
2023/12/10 05:45:28;;;;;;;14.27;9.70;;;;;;;;;;5045461;28;20756;-83
2023/12/10 05:47:55;;;;;;;14.20;10.27;;;;;;;;;;5035097;28;20218;-84
2023/12/10 05:50:22;;;;;;;14.83;9.90;;;;;;;;;;5035485;28;20680;-84
2023/12/10 05:52:51;;;;;;;16.67;11.43;;;;;;;;;;5024442;28;20221;-84
2023/12/10 05:55:18;;;;;;;18.63;12.00;;;;;;;;;;5042026;28;20237;-85
2023/12/10 05:57:44;;;;;;;15.37;11.87;;;;;;;;;;5047979;28;20209;-85
2023/12/10 06:00:12;;;;;;;19.63;13.40;;;;;;;;;;5051414;28;20205;-84
2023/12/10 06:02:39;;;;;;;23.83;17.57;;;;;;;;;;5035090;28;20206;-84
2023/12/10 06:05:06;;;;;;;29.83;23.33;;;;;;;;;;5042527;28;20210;-84
2023/12/10 06:07:33;;;;;;;27.83;19.13;;;;;;;;;;5037986;28;20231;-84
2023/12/10 06:10:05;;;;;;;24.80;18.67;;;;;;;;;;5044152;28;20210;-83
2023/12/10 06:12:32;;;;;;;30.60;21.43;;;;;;;;;;5040882;28;20252;-84
2023/12/10 06:14:59;;;;;;;19.97;14.13;;;;;;;;;;5045003;28;20222;-84
2023/12/10 06:17:26;;;;;;;16.77;13.90;;;;;;;;;;5031760;28;20207;-84
2023/12/10 06:19:53;;;;;;;17.33;15.33;;;;;;;;;;5036285;28;20206;-84
2023/12/10 06:22:20;;;;;;;15.93;14.13;;;;;;;;;;5051657;28;20258;-84
2023/12/10 06:24:47;;;;;;;11.57;8.30;;;;;;;;;;5037760;28;20223;-83
2023/12/10 06:27:17;;;;;;;13.33;9.90;;;;;;;;;;5038793;28;20217;-84
2023/12/10 06:29:44;;;;;;;11.97;8.47;;;;;;;;;;5037180;28;20281;-84
2023/12/10 06:32:11;;;;;;;8.57;6.10;;;;;;;;;;5050768;28;20297;-84
2023/12/10 06:34:38;;;;;;;7.27;6.43;;;;;;;;;;5050492;28;20776;-83
2023/12/10 06:37:05;;;;;;;7.67;6.87;;;;;;;;;;5037779;28;20711;-83
2023/12/10 06:39:32;;;;;;;11.37;7.53;;;;;;;;;;5037650;28;20676;-83
2023/12/10 06:41:59;;;;;;;6.53;5.37;;;;;;;;;;5037700;28;20213;-83
2023/12/10 06:44:27;;;;;;;33.07;24.43;;;;;;;;;;5050367;28;20673;-83
2023/12/10 06:46:54;;;;;;;51.47;38.27;;;;;;;;;;5038220;28;20207;-84
2023/12/10 06:49:21;;;;;;;21.70;18.23;;;;;;;;;;5044144;28;20203;-84
2023/12/10 06:51:48;;;;;;;10.67;6.63;;;;;;;;;;5038499;28;20199;-84
2023/12/10 06:54:15;;;;;;;13.23;11.57;;;;;;;;;;5042084;28;20240;-84
2023/12/10 06:56:42;;;;;;;11.80;10.60;;;;;;;;;;5045870;28;20317;-82
2023/12/10 06:59:09;;;;;;;26.60;20.57;;;;;;;;;;5030637;28;20207;-83
2023/12/10 07:01:38;;;;;;;28.13;22.90;;;;;;;;;;5043528;28;20590;-83
2023/12/10 07:04:06;;;;;;;24.30;20.47;;;;;;;;;;5030635;28;20215;-83
2023/12/10 07:06:33;;;;;;;15.90;14.20;;;;;;;;;;5043586;28;20203;-83
2023/12/10 07:09:00;;;;;;;11.77;9.33;;;;;;;;;;5043632;28;20622;-83
2023/12/10 07:11:27;;;;;;;16.50;10.57;;;;;;;;;;5038505;28;20283;-83
2023/12/10 07:13:54;;;;;;;17.63;12.87;;;;;;;;;;5033515;28;20236;-83
2023/12/10 07:16:21;;;;;;;13.87;10.27;;;;;;;;;;5040724;28;20214;-83
2023/12/10 07:18:50;;;;;;;14.10;9.90;;;;;;;;;;5043829;28;20582;-83
2023/12/10 07:21:17;;;;;;;11.97;9.10;;;;;;;;;;5040069;28;20290;-84
2023/12/10 07:23:44;;;;;;;27.57;19.13;;;;;;;;;;5046441;28;20206;-84
2023/12/10 07:26:12;;;;;;;26.17;17.83;;;;;;;;;;5039797;28;20668;-83
2023/12/10 07:28:39;;;;;;;28.40;21.20;;;;;;;;;;5036803;28;20205;-84
2023/12/10 07:31:07;;;;;;;34.47;21.17;;;;;;;;;;5040249;28;20210;-86
2023/12/10 07:33:34;;;;;;;22.17;13.37;;;;;;;;;;5030506;28;20199;-85
2023/12/10 07:36:05;;;;;;;26.90;17.20;;;;;;;;;;5030550;28;20707;-85
2023/12/10 07:38:31;;;;;;;20.47;12.97;;;;;;;;;;5048420;28;20217;-86
2023/12/10 07:40:58;;;;;;;17.70;12.60;;;;;;;;;;5039478;28;20210;-86
2023/12/10 07:43:25;;;;;;;14.20;10.30;;;;;;;;;;5025748;28;20207;-86
2023/12/10 07:45:52;;;;;;;15.90;11.00;;;;;;;;;;5032915;28;20231;-85
2023/12/10 07:48:20;;;;;;;16.70;11.53;;;;;;;;;;5050372;28;20206;-85
2023/12/10 07:50:47;;;;;;;21.63;16.10;;;;;;;;;;5031791;28;20215;-86
2023/12/10 07:53:16;;;;;;;23.63;14.30;;;;;;;;;;5030182;28;20217;-85
2023/12/10 07:55:43;;;;;;;17.57;11.67;;;;;;;;;;5049214;28;20222;-85
2023/12/10 07:58:10;;;;;;;15.37;10.90;;;;;;;;;;5050008;28;20206;-84
2023/12/10 08:00:38;;;;;;;16.93;12.13;;;;;;;;;;5036489;28;20208;-83
2023/12/10 08:03:06;;;;;;;13.27;10.33;;;;;;;;;;5049617;28;20214;-84
2023/12/10 08:05:33;;;;;;;14.63;9.40;;;;;;;;;;5036360;28;20206;-84
2023/12/10 08:08:03;;;;;;;13.97;9.50;;;;;;;;;;5049392;28;20202;-84
2023/12/10 08:10:31;;;;;;;14.10;10.73;;;;;;;;;;5023477;28;20210;-84
2023/12/10 08:12:58;;;;;;;17.33;10.77;;;;;;;;;;5048897;28;20209;-83
2023/12/10 08:15:25;;;;;;;12.23;10.27;;;;;;;;;;5028994;28;20231;-84
2023/12/10 08:17:52;;;;;;;12.43;9.43;;;;;;;;;;5031193;28;20203;-83
2023/12/10 08:20:19;;;;;;;12.27;9.50;;;;;;;;;;5049391;28;20216;-84
2023/12/10 08:22:47;;;;;;;13.07;10.37;;;;;;;;;;5049613;28;20579;-83
2023/12/10 08:25:15;;;;;;;15.73;9.87;;;;;;;;;;5049511;28;20297;-83
2023/12/10 08:27:43;;;;;;;18.97;13.27;;;;;;;;;;5036085;28;20291;-83
2023/12/10 08:30:11;;;;;;;22.83;14.50;;;;;;;;;;5024138;28;20210;-83
2023/12/10 08:32:38;;;;;;;11.87;9.60;;;;;;;;;;5035207;28;20211;-83
2023/12/10 08:35:05;;;;;;;16.73;10.43;;;;;;;;;;5021062;28;20302;-83
2023/12/10 08:37:32;;;;;;;14.47;9.50;;;;;;;;;;5037640;28;20206;-83
2023/12/10 08:39:59;;;;;;;15.00;11.57;;;;;;;;;;5038109;28;20699;-85
2023/12/10 08:42:27;;;;;;;13.80;9.63;;;;;;;;;;5049239;28;20528;-84
2023/12/10 08:44:55;;;;;;;17.60;12.83;;;;;;;;;;5049437;28;20212;-84
2023/12/10 08:47:22;;;;;;;23.40;15.90;;;;;;;;;;5045445;28;20217;-84
2023/12/10 08:49:49;;;;;;;28.03;17.23;;;;;;;;;;5039455;28;20289;-84
2023/12/10 08:52:16;;;;;;;15.93;10.90;;;;;;;;;;5049251;28;20600;-85
2023/12/10 08:54:43;;;;;;;18.10;11.40;;;;;;;;;;5039152;28;20253;-88
2023/12/10 08:57:10;;;;;;;21.70;15.80;;;;;;;;;;5047112;28;20202;-88
2023/12/10 08:59:37;;;;;;;29.30;19.83;;;;;;;;;;5049613;28;20209;-89
2023/12/10 09:02:06;;;;;;;23.23;13.67;;;;;;;;;;5036133;28;20592;-89
2023/12/10 09:04:33;;;;;;;18.00;12.63;;;;;;;;;;5049900;28;20206;-89
2023/12/10 09:07:00;;;;;;;22.00;13.97;;;;;;;;;;5031795;28;20217;-88
2023/12/10 09:09:28;;;;;;;26.40;16.60;;;;;;;;;;5041856;28;20206;-92
2023/12/10 09:11:56;;;;;;;20.67;15.50;;;;;;;;;;5048911;28;20294;-94
2023/12/10 09:14:23;;;;;;;21.67;14.37;;;;;;;;;;5035897;28;20232;-93
2023/12/10 09:16:50;;;;;;;17.43;13.43;;;;;;;;;;5049182;28;20206;-89
2023/12/10 09:19:21;;;;;;;19.43;14.83;;;;;;;;;;5049097;28;20202;-92
2023/12/10 09:21:48;;;;;;;16.80;12.93;;;;;;;;;;5049141;28;20201;-82
2023/12/10 09:24:15;;;;;;;14.63;9.80;;;;;;;;;;5035260;28;20622;-81
2023/12/10 09:26:42;;;;;;;19.03;11.03;;;;;;;;;;5047790;28;20213;-82
2023/12/10 09:29:08;;;;;;;14.07;9.63;;;;;;;;;;5045813;28;20688;-81
2023/12/10 09:31:36;;;;;;;18.67;10.70;;;;;;;;;;5036717;28;20694;-82
2023/12/10 09:34:07;;;;;;;15.53;10.77;;;;;;;;;;5037125;28;20213;-81
2023/12/10 09:36:36;;;;;;;18.90;13.27;;;;;;;;;;5045442;28;20637;-81
2023/12/10 09:39:04;;;;;;;19.40;14.40;;;;;;;;;;5043917;28;20222;-81
2023/12/10 09:41:31;;;;;;;17.60;12.10;;;;;;;;;;5037256;28;20714;-80
2023/12/10 09:43:58;;;;;;;18.00;11.70;;;;;;;;;;5045130;28;20202;-81
2023/12/10 09:46:26;;;;;;;16.13;11.90;;;;;;;;;;5030691;28;20231;-81
2023/12/10 09:48:53;;;;;;;15.50;10.27;;;;;;;;;;5038349;28;20596;-81
2023/12/10 09:51:20;;;;;;;17.13;10.80;;;;;;;;;;5031074;28;20204;-81
2023/12/10 09:53:49;;;;;;;22.53;13.00;;;;;;;;;;5037218;28;20734;-81
2023/12/10 09:56:18;;;;;;;16.57;10.33;;;;;;;;;;5044978;28;20226;-81
2023/12/10 09:58:46;;;;;;;20.67;13.50;;;;;;;;;;5036957;28;20216;-82
2023/12/10 10:01:13;;;;;;;23.57;12.70;;;;;;;;;;5040728;28;20203;-81
2023/12/10 10:03:41;;;;;;;17.93;11.67;;;;;;;;;;5036845;28;20209;-80
2023/12/10 10:06:09;;;;;;;12.47;8.73;;;;;;;;;;5034396;28;20210;-81
2023/12/10 10:08:36;;;;;;;17.37;10.93;;;;;;;;;;5047785;28;20206;-81
2023/12/10 10:11:04;;;;;;;15.73;10.33;;;;;;;;;;5034696;28;20587;-81
2023/12/10 10:13:31;;;;;;;19.47;11.40;;;;;;;;;;5047727;28;20210;-81
2023/12/10 10:16:09;;;;;;;19.23;10.93;;;;;;;;;;5029724;28;20317;-81
2023/12/10 10:18:39;;;;;;;15.67;10.77;;;;;;;;;;5039571;28;20202;-81
2023/12/10 10:21:07;;;;;;;18.60;12.33;;;;;;;;;;5041004;28;20738;-81
2023/12/10 10:23:34;;;;;;;15.97;11.53;;;;;;;;;;5027696;28;20207;-83
2023/12/10 10:26:04;;;;;;;17.83;12.47;;;;;;;;;;5021571;28;20810;-82
2023/12/10 10:28:34;;;;;;;20.30;12.80;;;;;;;;;;5033027;28;20285;-82
2023/12/10 10:31:03;;;;;;;16.37;11.83;;;;;;;;;;5035062;28;20233;-82
2023/12/10 10:33:30;;;;;;;20.50;13.33;;;;;;;;;;5046930;28;20202;-81
2023/12/10 10:35:59;;;;;;;16.70;12.23;;;;;;;;;;5038787;28;20226;-82
2023/12/10 10:38:27;;;;;;;17.17;10.07;;;;;;;;;;5043912;28;20206;-82
2023/12/10 10:40:56;;;;;;;14.67;10.30;;;;;;;;;;5040004;28;20198;-82
2023/12/10 10:43:23;;;;;;;20.77;11.93;;;;;;;;;;5050319;28;20599;-82
2023/12/10 10:45:53;;;;;;;17.77;12.07;;;;;;;;;;5037337;28;20210;-82
2023/12/10 10:48:21;;;;;;;20.03;12.03;;;;;;;;;;5050325;28;20690;-83
2023/12/10 10:50:49;;;;;;;18.53;12.83;;;;;;;;;;5050435;28;20285;-82
2023/12/10 10:53:16;;;;;;;21.13;12.53;;;;;;;;;;5050382;28;20213;-82
2023/12/10 10:55:46;;;;;;;18.07;13.17;;;;;;;;;;5037111;28;20229;-81
2023/12/10 10:58:27;;;;;;;21.57;13.47;;;;;;;;;;5050912;28;21148;-83
2023/12/10 11:00:56;;;;;;;19.13;14.97;;;;;;;;;;5010774;28;20203;-83
2023/12/10 11:03:26;;;;;;;20.10;14.37;;;;;;;;;;5040871;28;20213;-83
2023/12/10 11:05:55;;;;;;;19.40;14.07;;;;;;;;;;5044789;28;20289;-84
2023/12/10 11:08:22;;;;;;;24.87;15.30;;;;;;;;;;5032997;28;20598;-83
2023/12/10 11:10:57;;;;;;;22.33;15.97;;;;;;;;;;5044038;28;20268;-83
2023/12/10 11:13:42;;;;;;;22.97;14.37;;;;;;;;;;5037028;28;20216;-85
2023/12/10 11:16:11;;;;;;;25.50;14.97;;;;;;;;;;5049961;28;20233;-85
2023/12/10 11:18:51;;;;;;;29.43;15.87;;;;;;;;;;5017431;28;20207;-84
2023/12/10 11:21:17;;;;;;;22.40;14.80;;;;;;;;;;5043386;28;20214;-84
2023/12/10 11:23:44;;;;;;;23.93;15.97;;;;;;;;;;5039103;28;20202;-85
2023/12/10 11:26:12;;;;;;;22.53;13.93;;;;;;;;;;5031966;28;20209;-84
2023/12/10 11:28:38;;;;;;;21.83;13.23;;;;;;;;;;5019861;28;20207;-85
2023/12/10 11:31:06;;;;;;;21.47;12.73;;;;;;;;;;5045947;28;20225;-85
2023/12/10 11:33:38;;;;;;;20.73;13.53;;;;;;;;;;5049957;28;20209;-85
2023/12/10 11:36:05;;;;;;;22.47;13.10;;;;;;;;;;5049963;28;20230;-85
2023/12/10 11:38:32;;;;;;;19.63;13.53;;;;;;;;;;5040460;28;20214;-85
2023/12/10 11:40:59;;;;;;;18.63;12.80;;;;;;;;;;5034055;28;20213;-85
2023/12/10 11:43:27;;;;;;;23.00;14.83;;;;;;;;;;5050239;28;20234;-86
2023/12/10 11:45:56;;;;;;;20.57;14.47;;;;;;;;;;5032737;28;20247;-85
2023/12/10 11:48:23;;;;;;;21.33;13.83;;;;;;;;;;5040986;28;20281;-86
2023/12/10 11:50:52;;;;;;;22.13;12.00;;;;;;;;;;5036535;28;20214;-85
2023/12/10 11:53:19;;;;;;;18.80;14.20;;;;;;;;;;5047424;28;20213;-86
2023/12/10 11:55:48;;;;;;;27.80;14.60;;;;;;;;;;5030373;28;20235;-86
2023/12/10 11:58:15;;;;;;;20.60;12.20;;;;;;;;;;5043310;28;20213;-86
2023/12/10 12:00:57;;;;;;;20.27;12.23;;;;;;;;;;5049496;28;20206;-86
2023/12/10 12:03:24;;;;;;;21.50;13.53;;;;;;;;;;5048340;28;20266;-86
2023/12/10 12:05:53;;;;;;;19.83;13.50;;;;;;;;;;5030146;28;20206;-86
2023/12/10 12:08:20;;;;;;;20.93;12.07;;;;;;;;;;5043387;28;20210;-85
2023/12/10 12:10:49;;;;;;;21.10;13.97;;;;;;;;;;5029694;28;20244;-86
2023/12/10 12:13:19;;;;;;;19.57;13.50;;;;;;;;;;5029676;28;20211;-86
2023/12/10 12:15:46;;;;;;;23.13;12.90;;;;;;;;;;5030246;28;20253;-86
2023/12/10 12:18:13;;;;;;;22.17;13.47;;;;;;;;;;5029985;28;20206;-86
2023/12/10 12:20:40;;;;;;;20.27;12.60;;;;;;;;;;5039860;28;20647;-86
2023/12/10 12:23:09;;;;;;;20.93;12.87;;;;;;;;;;5036493;28;20198;-86
2023/12/10 12:25:38;;;;;;;24.00;14.87;;;;;;;;;;5038683;28;20267;-86
2023/12/10 12:28:06;;;;;;;23.07;14.57;;;;;;;;;;5043468;28;20293;-86
2023/12/10 12:30:33;;;;;;;19.87;14.23;;;;;;;;;;5029826;28;20214;-86
2023/12/10 12:33:01;;;;;;;16.83;10.97;;;;;;;;;;5047594;28;20201;-85
2023/12/10 12:35:28;;;;;;;19.03;12.00;;;;;;;;;;5049819;28;20230;-86
2023/12/10 12:37:55;;;;;;;19.33;11.57;;;;;;;;;;5030560;28;20213;-86
2023/12/10 12:40:23;;;;;;;21.07;11.80;;;;;;;;;;5030092;28;20198;-86
2023/12/10 12:42:51;;;;;;;17.93;11.93;;;;;;;;;;5042566;28;20294;-86
2023/12/10 12:45:18;;;;;;;18.57;12.00;;;;;;;;;;5040829;28;20256;-86
2023/12/10 12:47:45;;;;;;;21.03;11.93;;;;;;;;;;5042882;28;20213;-86
2023/12/10 12:50:12;;;;;;;16.40;10.70;;;;;;;;;;5043221;28;20209;-86
2023/12/10 12:52:40;;;;;;;16.10;12.10;;;;;;;;;;5049493;28;20568;-86
2023/12/10 12:55:07;;;;;;;18.30;12.03;;;;;;;;;;5035624;28;20215;-86
2023/12/10 12:57:37;;;;;;;19.60;12.73;;;;;;;;;;5041252;28;20236;-86
2023/12/10 13:00:06;;;;;;;18.47;11.97;;;;;;;;;;5042407;28;20590;-87
2023/12/10 13:02:33;;;;;;;21.77;13.50;;;;;;;;;;5038028;28;20284;-87
2023/12/10 13:04:59;;;;;;;23.07;15.47;;;;;;;;;;5047048;28;20206;-86
2023/12/10 13:07:26;;;;;;;24.53;18.67;;;;;;;;;;5038048;28;20210;-86
2023/12/10 13:09:53;;;;;;;23.13;13.90;;;;;;;;;;5035448;28;20638;-86
2023/12/10 13:12:21;;;;;;;16.03;12.70;;;;;;;;;;5040095;28;20230;-86
2023/12/10 13:14:50;;;;;;;19.33;12.13;;;;;;;;;;5029227;28;20223;-86
2023/12/10 13:17:18;;;;;;;18.47;11.83;;;;;;;;;;5041566;28;20298;-86
2023/12/10 13:19:44;;;;;;;17.77;11.23;;;;;;;;;;5032762;28;20211;-86
2023/12/10 13:22:11;;;;;;;18.57;12.53;;;;;;;;;;5047506;28;20202;-86
2023/12/10 13:24:38;;;;;;;17.60;12.17;;;;;;;;;;5049272;28;20218;-87
2023/12/10 13:27:07;;;;;;;16.13;11.97;;;;;;;;;;5048918;28;20206;-87
2023/12/10 13:29:34;;;;;;;15.87;11.53;;;;;;;;;;5036391;28;20211;-87
2023/12/10 13:32:03;;;;;;;14.20;10.83;;;;;;;;;;5035655;28;20232;-87
2023/12/10 13:34:30;;;;;;;15.07;10.77;;;;;;;;;;5036054;28;20209;-86
2023/12/10 13:36:57;;;;;;;15.73;10.60;;;;;;;;;;5022656;28;20574;-87
2023/12/10 13:39:24;;;;;;;16.50;11.53;;;;;;;;;;5035368;28;20211;-87
2023/12/10 13:41:50;;;;;;;20.60;11.67;;;;;;;;;;5035957;28;20218;-87
2023/12/10 13:44:17;;;;;;;19.90;12.50;;;;;;;;;;5039392;28;20208;-87
2023/12/10 13:46:46;;;;;;;16.70;10.97;;;;;;;;;;5048836;28;20216;-87
2023/12/10 13:49:15;;;;;;;15.13;11.13;;;;;;;;;;5030291;28;20294;-87
2023/12/10 13:51:43;;;;;;;15.73;10.40;;;;;;;;;;5041243;28;20252;-87
2023/12/10 13:54:10;;;;;;;15.77;10.60;;;;;;;;;;5042978;28;20604;-87
2023/12/10 13:56:39;;;;;;;17.40;15.53;;;;;;;;;;5041366;28;20707;-87
2023/12/10 13:59:06;;;;;;;20.60;15.47;;;;;;;;;;5042525;28;20297;-89
2023/12/10 14:01:35;;;;;;;33.27;28.00;;;;;;;;;;5042110;28;20208;-87
2023/12/10 14:04:05;;;;;;;43.47;30.67;;;;;;;;;;5041974;28;20203;-84
2023/12/10 14:06:34;;;;;;;27.33;20.97;;;;;;;;;;5043118;28;20210;-89
2023/12/10 14:09:06;;;;;;;33.57;23.90;;;;;;;;;;5040379;28;20215;-85
2023/12/10 14:11:35;;;;;;;37.63;26.50;;;;;;;;;;5028580;28;21026;-83
2023/12/10 14:14:02;;;;;;;55.53;36.70;;;;;;;;;;5031480;28;20201;-83
2023/12/10 14:16:29;;;;;;;73.20;46.93;;;;;;;;;;5033802;28;20233;-82
2023/12/10 14:18:56;;;;;;;65.83;42.40;;;;;;;;;;5050001;28;20266;-82
2023/12/10 14:21:27;;;;;;;50.63;37.60;;;;;;;;;;5016992;28;20677;-83
2023/12/10 14:23:55;;;;;;;46.50;34.03;;;;;;;;;;5041800;28;20202;-82